Time;durP1;ratioP1;P1;durP2;ratioP2;P2;SDS_P1;SDS_P2;PMS_P1;PMS_P2;Temp;Humidity;BMP_temperature;BMP_pressure;BME280_temperature;BME280_humidity;BME280_pressure;Samples;Min_cycle;Max_cycle;Signal;HPM_P1;HPM_P2
2023/06/29 00:00:11;;;;;;;3.53;3.17;;;;;;;15.52;69.22;101109.94;7393583;19;20025;-66
2023/06/29 00:02:41;;;;;;;8.00;3.83;;;;;;;15.50;69.34;101116.22;7393027;19;20367;-65
2023/06/29 00:05:11;;;;;;;3.42;2.95;;;;;;;15.48;69.54;101116.28;7396640;19;20022;-65
2023/06/29 00:07:40;;;;;;;4.90;4.07;;;;;;;15.45;69.56;101116.38;7400682;19;20074;-66
2023/06/29 00:10:10;;;;;;;3.15;2.53;;;;;;;15.40;69.89;101113.03;7400638;19;20014;-66
2023/06/29 00:12:41;;;;;;;7.20;3.78;;;;;;;15.39;70.12;101113.94;7400332;19;20017;-66
2023/06/29 00:15:11;;;;;;;5.00;3.17;;;;;;;15.36;70.39;101112.28;7398496;19;20018;-66
2023/06/29 00:17:40;;;;;;;4.70;2.97;;;;;;;15.33;70.68;101120.34;7399941;19;20010;-66
2023/06/29 00:20:12;;;;;;;6.65;3.28;;;;;;;15.29;70.40;101119.56;7399682;19;20445;-66
2023/06/29 00:22:47;;;;;;;5.93;3.55;;;;;;;15.25;70.86;101109.16;7398076;19;20024;-66
2023/06/29 00:25:16;;;;;;;6.47;3.38;;;;;;;15.23;71.09;101111.00;7400731;19;20046;-66
2023/06/29 00:27:47;;;;;;;5.57;3.55;;;;;;;15.18;71.20;101111.16;7399669;19;20014;-66
2023/06/29 00:30:16;;;;;;;6.55;3.97;;;;;;;15.14;71.44;101115.69;7398123;19;20019;-66
2023/06/29 00:32:44;;;;;;;6.50;3.88;;;;;;;15.10;71.65;101100.88;7399645;19;20090;-66
2023/06/29 00:35:13;;;;;;;5.65;3.45;;;;;;;15.09;71.63;101104.41;7399696;19;20019;-66
2023/06/29 00:37:42;;;;;;;7.00;3.67;;;;;;;15.05;72.08;101104.56;7399654;19;20025;-66
2023/06/29 00:40:12;;;;;;;8.10;3.67;;;;;;;15.03;72.25;101111.72;7399913;19;20015;-66
2023/06/29 00:42:40;;;;;;;5.65;3.20;;;;;;;14.99;72.29;101105.66;7398956;19;20015;-66
2023/06/29 00:45:12;;;;;;;5.97;4.07;;;;;;;14.95;72.51;101096.97;7397540;19;20010;-66
2023/06/29 00:47:41;;;;;;;13.68;3.75;;;;;;;14.92;72.28;101101.50;7397588;19;20070;-66
2023/06/29 00:50:11;;;;;;;3.67;2.85;;;;;;;14.89;72.65;101093.69;7399391;19;20022;-66
2023/06/29 00:52:39;;;;;;;4.75;3.40;;;;;;;14.87;72.84;101095.50;7399040;19;20021;-66
2023/06/29 00:55:08;;;;;;;5.32;3.78;;;;;;;14.82;72.93;101085.97;7399187;19;20028;-66
2023/06/29 00:57:39;;;;;;;6.95;4.13;;;;;;;14.79;73.10;101096.63;7399142;19;20034;-66
2023/06/29 01:00:14;;;;;;;4.47;3.08;;;;;;;14.75;73.49;101094.16;7397158;19;20022;-66
2023/06/29 01:02:42;;;;;;;4.65;3.60;;;;;;;14.71;73.61;101096.03;7398851;19;20026;-66
2023/06/29 01:05:11;;;;;;;6.53;3.60;;;;;;;14.65;73.50;101091.81;7398850;19;20015;-66
2023/06/29 01:07:45;;;;;;;7.53;3.70;;;;;;;14.61;73.63;101091.94;7396143;19;20033;-66
2023/06/29 01:10:17;;;;;;;7.43;3.55;;;;;;;14.56;73.59;101084.16;7398972;19;20019;-66
2023/06/29 01:12:47;;;;;;;5.03;3.53;;;;;;;14.51;73.83;101083.44;7397512;19;20015;-65
2023/06/29 01:15:18;;;;;;;5.38;3.38;;;;;;;14.48;73.88;101079.13;7398331;19;20098;-65
2023/06/29 01:17:50;;;;;;;5.85;3.60;;;;;;;14.46;74.11;101077.47;7398017;19;20037;-64
2023/06/29 01:20:19;;;;;;;6.88;4.47;;;;;;;14.44;74.01;101082.75;7396723;19;20019;-65
2023/06/29 01:22:58;;;;;;;5.25;3.90;;;;;;;14.41;74.04;101071.47;7397550;19;20077;-65
2023/06/29 01:25:30;;;;;;;5.85;3.40;;;;;;;14.39;74.34;101073.28;7398597;19;20018;-65
2023/06/29 01:27:58;;;;;;;4.30;3.22;;;;;;;14.35;74.47;101069.88;7397759;19;20015;-65
2023/06/29 01:30:28;;;;;;;6.28;3.97;;;;;;;14.32;74.52;101068.19;7398088;19;20018;-65
2023/06/29 01:32:56;;;;;;;3.97;3.35;;;;;;;14.29;74.44;101059.50;7395500;19;20015;-65
2023/06/29 01:35:25;;;;;;;8.55;3.78;;;;;;;14.28;74.79;101063.94;7397700;19;20081;-65
2023/06/29 01:38:01;;;;;;;5.32;3.67;;;;;;;14.26;74.77;101059.63;7397916;19;20017;-65
2023/06/29 01:40:33;;;;;;;7.85;3.47;;;;;;;14.23;75.09;101063.22;7397641;19;20007;-65
2023/06/29 01:43:02;;;;;;;6.57;4.05;;;;;;;14.20;74.98;101055.41;7396791;19;20020;-65
2023/06/29 01:45:32;;;;;;;5.97;4.13;;;;;;;14.18;75.37;101059.88;7395768;19;20010;-65
2023/06/29 01:48:09;;;;;;;4.28;3.63;;;;;;;14.15;75.46;101063.47;7397369;19;20019;-65
2023/06/29 01:50:38;;;;;;;7.57;3.83;;;;;;;14.12;75.56;101049.50;7397355;19;20074;-65
2023/06/29 01:53:06;;;;;;;6.55;3.67;;;;;;;14.10;75.80;101053.97;7396342;19;20541;-65
2023/06/29 01:55:37;;;;;;;5.78;3.78;;;;;;;14.08;75.97;101058.41;7395460;19;20019;-65
2023/06/29 01:58:06;;;;;;;5.07;4.07;;;;;;;14.05;76.06;101056.75;7395775;19;20014;-65
2023/06/29 02:00:35;;;;;;;5.03;4.05;;;;;;;14.03;76.15;101058.56;7396804;19;20090;-65
2023/06/29 02:03:03;;;;;;;3.67;3.35;;;;;;;14.00;76.26;101053.38;7397249;19;20030;-65
2023/06/29 02:05:31;;;;;;;6.32;3.35;;;;;;;13.96;76.44;101047.38;7397639;19;20077;-65
2023/06/29 02:08:00;;;;;;;6.43;4.15;;;;;;;13.95;76.64;101056.19;7397674;19;20089;-65
2023/06/29 02:10:28;;;;;;;4.57;3.78;;;;;;;13.93;76.78;101062.41;7395576;19;20042;-65
2023/06/29 02:12:59;;;;;;;6.95;4.10;;;;;;;13.90;77.00;101057.22;7395660;19;20021;-65
2023/06/29 02:15:28;;;;;;;4.18;3.70;;;;;;;13.85;76.93;101063.50;7394945;19;20025;-65
2023/06/29 02:17:56;;;;;;;4.72;3.63;;;;;;;13.82;77.21;101070.63;7396422;19;20014;-65
2023/06/29 02:20:25;;;;;;;5.03;3.90;;;;;;;13.77;77.32;101065.50;7394299;19;20439;-65
2023/06/29 02:22:53;;;;;;;5.15;3.88;;;;;;;13.72;77.37;101070.03;7394534;19;21482;-65
2023/06/29 02:25:22;;;;;;;7.13;3.65;;;;;;;13.69;77.39;101064.88;7396191;19;20031;-65
2023/06/29 02:27:50;;;;;;;4.57;4.15;;;;;;;13.66;77.49;101070.22;7394430;19;20025;-65
2023/06/29 02:30:22;;;;;;;6.47;3.72;;;;;;;13.63;77.45;101065.06;7394373;19;20081;-65
2023/06/29 02:32:50;;;;;;;5.85;4.53;;;;;;;13.60;77.37;101070.44;7396059;19;20027;-64
2023/06/29 02:35:19;;;;;;;7.50;4.78;;;;;;;13.57;77.97;101070.50;7395861;19;20015;-64
2023/06/29 02:37:47;;;;;;;8.35;4.70;;;;;;;13.54;77.92;101075.88;7395636;19;20029;-64
2023/06/29 02:40:22;;;;;;;6.97;4.97;;;;;;;13.50;78.23;101075.94;7395188;19;20082;-65
2023/06/29 02:42:51;;;;;;;5.97;4.18;;;;;;;13.48;78.19;101075.16;7393905;19;20097;-64
2023/06/29 02:45:22;;;;;;;8.40;4.43;;;;;;;13.45;78.35;101077.00;7393977;19;20010;-65
2023/06/29 02:47:50;;;;;;;9.45;4.72;;;;;;;13.41;78.32;101075.34;7395951;19;20376;-65
2023/06/29 02:50:19;;;;;;;6.53;4.43;;;;;;;13.36;78.55;101072.81;7395265;19;20017;-65
2023/06/29 02:52:47;;;;;;;6.13;4.50;;;;;;;13.33;78.64;101072.88;7394961;19;20090;-64
2023/06/29 02:55:16;;;;;;;4.88;4.28;;;;;;;13.30;78.65;101070.34;7395003;19;20380;-65
2023/06/29 02:57:44;;;;;;;6.38;4.63;;;;;;;13.27;78.96;101068.66;7395209;19;20098;-65
2023/06/29 03:00:14;;;;;;;6.47;4.30;;;;;;;13.23;78.87;101069.66;7394789;19;20010;-65
2023/06/29 03:02:45;;;;;;;5.93;4.40;;;;;;;13.21;79.03;101068.84;7393569;19;20025;-65
2023/06/29 03:05:13;;;;;;;5.53;4.28;;;;;;;13.18;79.07;101069.78;7394732;19;20011;-65
2023/06/29 03:07:42;;;;;;;5.75;4.72;;;;;;;13.18;79.09;101066.28;7394485;19;20010;-64
2023/06/29 03:10:11;;;;;;;5.45;4.75;;;;;;;13.18;79.24;101068.91;7394336;19;20544;-65
2023/06/29 03:12:41;;;;;;;5.65;4.50;;;;;;;13.18;79.34;101077.69;7394541;19;20029;-65
2023/06/29 03:15:10;;;;;;;7.22;4.97;;;;;;;13.19;79.51;101071.53;7394812;19;20019;-64
2023/06/29 03:17:39;;;;;;;5.57;4.68;;;;;;;13.20;79.47;101078.53;7394535;19;20014;-64
2023/06/29 03:20:13;;;;;;;4.95;4.28;;;;;;;13.23;79.51;101082.84;7394555;19;20024;-65
2023/06/29 03:22:41;;;;;;;6.57;4.65;;;;;;;13.26;79.51;101076.63;7393390;19;20015;-64
2023/06/29 03:25:11;;;;;;;6.47;4.78;;;;;;;13.28;79.59;101074.78;7395061;19;20022;-64
2023/06/29 03:27:40;;;;;;;7.10;4.38;;;;;;;13.29;79.58;101071.25;7394286;19;20026;-64
2023/06/29 03:30:10;;;;;;;6.90;4.60;;;;;;;13.31;79.48;101072.94;7393963;19;20014;-65
2023/06/29 03:32:38;;;;;;;5.05;4.55;;;;;;;13.34;79.53;101069.34;7394085;19;20041;-64
2023/06/29 03:35:10;;;;;;;6.18;4.32;;;;;;;13.38;79.69;101067.53;7394024;19;20039;-65
2023/06/29 03:37:39;;;;;;;7.00;4.70;;;;;;;13.43;79.68;101074.38;7394494;19;20023;-65
2023/06/29 03:40:09;;;;;;;5.53;4.65;;;;;;;13.45;79.83;101067.31;7399457;19;20010;-65
2023/06/29 03:42:37;;;;;;;6.18;4.70;;;;;;;13.51;79.94;101074.19;7399429;19;20433;-66
2023/06/29 03:45:07;;;;;;;8.70;5.28;;;;;;;13.54;79.80;101068.81;7397459;19;20022;-65
2023/06/29 03:47:36;;;;;;;10.77;4.95;;;;;;;13.59;79.70;101066.06;7398634;19;20014;-65
2023/06/29 03:50:04;;;;;;;6.80;4.88;;;;;;;13.62;79.96;101064.19;7398452;19;20014;-65
2023/06/29 03:52:35;;;;;;;6.10;4.70;;;;;;;13.67;79.90;101056.13;7398711;19;20427;-64
2023/06/29 03:55:04;;;;;;;6.60;4.60;;;;;;;13.72;79.89;101059.50;7402672;19;20022;-65
2023/06/29 03:57:32;;;;;;;6.50;5.05;;;;;;;13.77;80.13;101070.78;7400774;19;20379;-64
2023/06/29 04:00:00;;;;;;;5.47;4.97;;;;;;;13.81;79.89;101067.16;7401146;19;20036;-65
2023/06/29 04:02:29;;;;;;;7.70;5.38;;;;;;;13.86;79.98;101072.25;7398136;19;20082;-65
2023/06/29 04:04:57;;;;;;;6.30;4.93;;;;;;;13.90;79.83;101068.66;7397524;19;20086;-63
2023/06/29 04:07:26;;;;;;;7.18;5.00;;;;;;;13.96;79.97;101064.94;7401043;19;20039;-65
2023/06/29 04:09:57;;;;;;;5.82;4.70;;;;;;;14.02;79.71;101067.41;7400382;19;20035;-66
2023/06/29 04:12:25;;;;;;;7.72;4.82;;;;;;;14.07;79.80;101070.75;7399560;19;20014;-67
2023/06/29 04:14:54;;;;;;;7.78;5.13;;;;;;;14.12;79.58;101068.84;7397739;19;20032;-65
2023/06/29 04:17:22;;;;;;;8.45;5.35;;;;;;;14.18;79.77;101073.91;7400317;19;20023;-65
2023/06/29 04:19:51;;;;;;;8.15;5.10;;;;;;;14.24;79.82;101072.00;7399697;19;20399;-65
2023/06/29 04:22:19;;;;;;;7.70;4.93;;;;;;;14.28;79.71;101063.94;7397375;19;20070;-65
2023/06/29 04:24:48;;;;;;;8.02;4.82;;;;;;;14.35;79.63;101067.25;7397569;19;20026;-65
2023/06/29 04:27:19;;;;;;;12.57;5.45;;;;;;;14.40;79.47;101067.94;7397004;19;20482;-66
2023/06/29 04:29:47;;;;;;;6.18;4.63;;;;;;;14.46;79.61;101064.25;7400245;19;20019;-66
2023/06/29 04:32:16;;;;;;;6.18;4.32;;;;;;;14.52;79.07;101063.19;7399842;19;20018;-66
2023/06/29 04:34:47;;;;;;;8.48;4.82;;;;;;;14.57;79.22;101056.84;7397260;19;20036;-65
2023/06/29 04:37:16;;;;;;;8.00;4.35;;;;;;;14.63;79.19;101066.31;7397356;19;20361;-66
2023/06/29 04:39:46;;;;;;;5.68;4.40;;;;;;;14.69;79.14;101068.81;7397198;19;20082;-67
2023/06/29 04:42:16;;;;;;;5.47;4.55;;;;;;;14.74;79.02;101069.50;7398577;19;20011;-66
2023/06/29 04:45:06;;;;;;;8.50;4.40;;;;;;;14.80;79.04;101069.28;7395709;19;20010;-66
2023/06/29 04:47:35;;;;;;;9.68;4.82;;;;;;;14.86;78.70;101070.88;7399301;19;20022;-65
2023/06/29 04:50:04;;;;;;;11.60;6.47;;;;;;;14.91;78.70;101068.06;7395458;19;20011;-65
2023/06/29 04:52:36;;;;;;;10.50;6.82;;;;;;;14.96;78.73;101066.13;7398445;19;20015;-66
2023/06/29 04:55:06;;;;;;;6.57;4.72;;;;;;;15.02;78.52;101071.19;7398728;19;20021;-66
2023/06/29 04:57:34;;;;;;;6.60;4.65;;;;;;;15.08;78.75;101070.13;7398863;19;20026;-65
2023/06/29 05:00:11;;;;;;;7.85;4.57;;;;;;;15.15;78.61;101067.22;7397906;19;20026;-65
2023/06/29 05:02:39;;;;;;;7.60;4.75;;;;;;;15.22;78.30;101053.78;7397721;19;20037;-66
2023/06/29 05:05:08;;;;;;;7.97;4.47;;;;;;;15.30;78.48;101059.63;7397776;19;20014;-66
2023/06/29 05:07:38;;;;;;;7.78;4.40;;;;;;;15.37;78.20;101060.28;7397611;19;20015;-67
2023/06/29 05:10:08;;;;;;;7.72;5.10;;;;;;;15.42;77.75;101056.53;7398089;19;20027;-65
2023/06/29 05:12:36;;;;;;;11.05;4.70;;;;;;;15.48;77.60;101051.03;7395319;19;20019;-67
2023/06/29 05:15:08;;;;;;;8.82;4.50;;;;;;;15.55;77.33;101051.66;7396004;19;20394;-66
2023/06/29 05:17:37;;;;;;;9.48;4.75;;;;;;;15.60;77.30;101052.34;7395156;19;20552;-66
2023/06/29 05:20:08;;;;;;;10.32;5.18;;;;;;;15.66;77.49;101045.97;7394483;19;20018;-66
2023/06/29 05:22:37;;;;;;;9.43;4.80;;;;;;;15.71;76.99;101054.59;7395737;19;20018;-65
2023/06/29 05:25:06;;;;;;;6.97;4.22;;;;;;;15.75;76.99;101055.34;7395302;19;20028;-67
2023/06/29 05:27:34;;;;;;;8.18;4.65;;;;;;;15.80;76.95;101058.66;7396893;19;20015;-64
2023/06/29 05:30:02;;;;;;;7.43;5.32;;;;;;;15.85;76.96;101055.88;7397411;19;20019;-66
2023/06/29 05:32:34;;;;;;;11.07;4.90;;;;;;;15.89;76.75;101058.31;7397080;19;20015;-66
2023/06/29 05:35:02;;;;;;;7.47;4.57;;;;;;;15.94;76.53;101059.00;7397514;19;20431;-66
2023/06/29 05:37:32;;;;;;;6.20;4.70;;;;;;;15.99;76.31;101058.00;7396500;19;20028;-63
2023/06/29 05:40:01;;;;;;;7.30;4.45;;;;;;;16.03;76.44;101052.50;7394842;19;20489;-65
2023/06/29 05:42:29;;;;;;;10.43;4.57;;;;;;;16.07;76.65;101062.03;7395134;19;20072;-65
2023/06/29 05:44:58;;;;;;;9.50;4.80;;;;;;;16.12;76.51;101070.69;7394215;19;20014;-66
2023/06/29 05:47:27;;;;;;;5.10;4.10;;;;;;;16.16;76.08;101067.88;7396708;19;20022;-66
2023/06/29 05:49:58;;;;;;;6.45;4.30;;;;;;;16.20;76.33;101073.00;7395428;19;20015;-66
2023/06/29 05:52:27;;;;;;;6.93;4.45;;;;;;;16.23;76.44;101070.22;7394658;19;20022;-65
2023/06/29 05:54:55;;;;;;;6.35;4.18;;;;;;;16.29;76.25;101066.47;7394769;19;20015;-66
2023/06/29 05:57:23;;;;;;;7.07;4.38;;;;;;;16.32;76.24;101061.06;7394790;19;20019;-67
2023/06/29 05:59:52;;;;;;;7.80;3.88;;;;;;;16.38;75.91;101058.16;7394884;19;20019;-66
2023/06/29 06:02:20;;;;;;;6.70;4.05;;;;;;;16.44;75.93;101063.19;7393517;19;20488;-66
2023/06/29 06:04:49;;;;;;;8.73;4.05;;;;;;;16.52;76.04;101059.38;7394837;19;20014;-65
2023/06/29 06:07:29;;;;;;;6.05;4.25;;;;;;;16.57;76.18;101063.53;7394186;19;20489;-65
2023/06/29 06:09:58;;;;;;;4.93;4.00;;;;;;;16.63;75.98;101054.50;7394918;19;20059;-65
2023/06/29 06:12:27;;;;;;;4.78;4.30;;;;;;;16.71;75.89;101059.47;7395808;19;20485;-66
2023/06/29 06:14:56;;;;;;;5.93;4.40;;;;;;;16.77;75.62;101057.41;7394764;19;20022;-67
2023/06/29 06:17:24;;;;;;;10.48;4.70;;;;;;;16.85;75.46;101064.19;7395669;19;20549;-66
2023/06/29 06:19:53;;;;;;;12.32;5.57;;;;;;;16.92;75.73;101057.69;7394146;19;20086;-66
2023/06/29 06:22:24;;;;;;;7.15;4.72;;;;;;;16.99;75.63;101053.84;7395877;19;20015;-66
2023/06/29 06:24:52;;;;;;;9.02;5.82;;;;;;;17.05;75.60;101061.53;7394293;19;20018;-67
2023/06/29 06:27:21;;;;;;;8.13;4.95;;;;;;;17.12;75.36;101061.28;7395895;19;20039;-67
2023/06/29 06:29:49;;;;;;;8.23;4.78;;;;;;;17.18;75.13;101055.72;7396024;19;20014;-64
2023/06/29 06:32:19;;;;;;;6.15;4.40;;;;;;;17.23;74.76;101059.00;7395128;19;20011;-64
2023/06/29 06:34:48;;;;;;;7.57;4.68;;;;;;;17.28;74.63;101057.00;7393778;19;20069;-65
2023/06/29 06:37:17;;;;;;;7.18;4.65;;;;;;;17.34;74.60;101051.44;7393957;19;20052;-64
2023/06/29 06:39:48;;;;;;;10.32;4.40;;;;;;;17.39;74.73;101060.03;7394246;19;20022;-65
2023/06/29 06:42:16;;;;;;;11.30;5.10;;;;;;;17.45;74.34;101058.03;7395146;19;20086;-65
2023/06/29 06:44:53;;;;;;;9.60;4.85;;;;;;;17.51;74.56;101058.59;7393098;19;20031;-65
2023/06/29 06:47:21;;;;;;;5.60;4.30;;;;;;;17.58;74.18;101049.44;7394677;19;20039;-66
2023/06/29 06:49:50;;;;;;;8.40;4.75;;;;;;;17.66;74.22;101051.75;7393527;19;20022;-65
2023/06/29 06:52:18;;;;;;;8.75;4.25;;;;;;;17.75;73.85;101051.34;7392664;19;20027;-65
2023/06/29 06:54:50;;;;;;;8.07;4.18;;;;;;;17.84;73.55;101059.78;7393491;19;20022;-65
2023/06/29 06:57:19;;;;;;;8.25;4.65;;;;;;;17.92;73.17;101058.47;7393618;19;20021;-67
2023/06/29 06:59:48;;;;;;;8.80;4.50;;;;;;;18.00;73.53;101050.19;7393060;19;20040;-64
2023/06/29 07:02:17;;;;;;;8.98;5.55;;;;;;;18.13;73.10;101054.91;7394734;19;20505;-67
2023/06/29 07:04:46;;;;;;;9.38;4.90;;;;;;;18.24;73.07;101047.28;7392936;19;20036;-66
2023/06/29 07:07:15;;;;;;;8.00;4.40;;;;;;;18.37;72.25;101051.06;7394040;19;20093;-66
2023/06/29 07:09:44;;;;;;;9.32;4.47;;;;;;;18.49;72.11;101049.56;7394305;19;20094;-65
2023/06/29 07:12:15;;;;;;;8.25;4.38;;;;;;;18.61;71.17;101049.88;7393551;19;20018;-66
2023/06/29 07:14:43;;;;;;;14.00;5.78;;;;;;;18.72;70.94;101050.19;7398468;19;20044;-66
2023/06/29 07:17:12;;;;;;;6.75;4.10;;;;;;;18.83;70.77;101050.50;7400966;19;20023;-66
2023/06/29 07:19:40;;;;;;;7.55;4.45;;;;;;;18.95;70.23;101051.69;7400810;19;20082;-68
2023/06/29 07:22:09;;;;;;;6.38;4.38;;;;;;;19.08;69.90;101045.75;7401117;19;20014;-66
2023/06/29 07:24:37;;;;;;;5.47;3.75;;;;;;;19.19;69.61;101046.03;7398302;19;20026;-66
2023/06/29 07:27:06;;;;;;;8.05;3.95;;;;;;;19.30;69.15;101046.31;7402038;19;20018;-66
2023/06/29 07:29:37;;;;;;;9.13;4.35;;;;;;;19.38;68.45;101043.25;7401113;19;20026;-66
2023/06/29 07:32:06;;;;;;;10.60;3.83;;;;;;;19.48;68.58;101044.44;7398633;19;20014;-66
2023/06/29 07:34:35;;;;;;;7.40;3.88;;;;;;;19.57;68.19;101040.44;7398032;19;20035;-67
2023/06/29 07:37:03;;;;;;;6.38;4.07;;;;;;;19.64;67.75;101036.50;7400837;19;20019;-67
2023/06/29 07:39:33;;;;;;;10.15;3.47;;;;;;;19.72;67.40;101041.41;7400773;19;20019;-70
2023/06/29 07:42:01;;;;;;;5.95;3.03;;;;;;;19.79;67.21;101039.25;7398328;19;20018;-66
2023/06/29 07:44:30;;;;;;;5.57;3.70;;;;;;;19.85;66.81;101038.94;7398269;19;20030;-67
2023/06/29 07:47:14;;;;;;;6.90;3.90;;;;;;;19.90;66.40;101036.88;7396873;19;20010;-67
2023/06/29 07:49:43;;;;;;;5.88;3.83;;;;;;;19.95;66.18;101040.13;7401018;19;20027;-67
2023/06/29 07:52:11;;;;;;;9.00;3.80;;;;;;;20.00;65.75;101031.88;7400202;19;20018;-67
2023/06/29 07:54:40;;;;;;;10.02;3.67;;;;;;;20.04;65.48;101037.91;7397596;19;20569;-66
2023/06/29 07:57:10;;;;;;;7.35;3.10;;;;;;;20.09;65.37;101038.50;7400401;19;20026;-67
2023/06/29 07:59:38;;;;;;;5.90;3.42;;;;;;;20.13;65.25;101037.38;7401876;19;20014;-67
2023/06/29 08:02:10;;;;;;;5.07;3.35;;;;;;;20.18;65.09;101038.84;7400770;19;20034;-67
2023/06/29 08:04:38;;;;;;;4.55;3.00;;;;;;;20.25;64.87;101039.31;7398244;19;20035;-68
2023/06/29 08:07:08;;;;;;;4.97;3.20;;;;;;;20.32;64.18;101032.69;7400486;19;20019;-67
2023/06/29 08:09:37;;;;;;;5.07;3.28;;;;;;;20.41;63.66;101030.44;7400495;19;20026;-67
2023/06/29 08:12:06;;;;;;;7.95;3.50;;;;;;;20.50;63.18;101035.25;7400334;19;20385;-67
2023/06/29 08:14:35;;;;;;;7.25;3.22;;;;;;;20.57;63.00;101025.91;7398195;19;20022;-67
2023/06/29 08:17:04;;;;;;;3.20;2.90;;;;;;;20.67;62.43;101032.44;7397768;19;20022;-67
2023/06/29 08:19:35;;;;;;;4.85;2.85;;;;;;;20.76;61.77;101030.19;7399895;19;20036;-67
2023/06/29 08:22:04;;;;;;;4.15;3.30;;;;;;;20.83;61.52;101031.53;7400104;19;20363;-66
2023/06/29 08:24:32;;;;;;;7.20;2.88;;;;;;;20.91;60.45;101023.06;7395489;19;20418;-67
2023/06/29 08:27:01;;;;;;;6.28;2.97;;;;;;;20.98;60.29;101022.59;7399433;19;20018;-67
2023/06/29 08:29:30;;;;;;;4.97;3.03;;;;;;;21.08;60.46;101019.34;7396968;19;20378;-67
2023/06/29 08:31:58;;;;;;;4.05;2.80;;;;;;;21.18;60.05;101020.53;7396989;19;20020;-67
2023/06/29 08:34:27;;;;;;;6.15;3.28;;;;;;;21.29;59.86;101025.19;7397538;19;20014;-66
2023/06/29 08:36:58;;;;;;;6.13;2.60;;;;;;;21.41;59.72;101018.22;7398914;19;20014;-66
2023/06/29 08:39:26;;;;;;;8.10;3.40;;;;;;;21.50;59.33;101014.97;7396645;19;20506;-66
2023/06/29 08:41:55;;;;;;;4.85;2.45;;;;;;;21.62;58.50;101016.00;7398721;19;20014;-66
2023/06/29 08:44:24;;;;;;;4.95;2.75;;;;;;;21.75;58.54;101016.94;7397232;19;20018;-67
2023/06/29 08:46:53;;;;;;;5.68;2.50;;;;;;;21.86;57.67;101004.72;7397012;19;20489;-67
2023/06/29 08:49:23;;;;;;;5.40;3.30;;;;;;;21.97;57.41;101010.22;7398740;19;20528;-67
2023/06/29 08:51:54;;;;;;;7.05;2.53;;;;;;;22.08;57.16;101010.34;7399140;19;20021;-67
2023/06/29 08:54:26;;;;;;;4.45;2.78;;;;;;;22.22;56.67;101005.91;7396445;19;20019;-65
2023/06/29 08:56:55;;;;;;;4.82;2.95;;;;;;;22.35;56.52;101013.97;7396160;19;20011;-67
2023/06/29 08:59:25;;;;;;;6.65;3.85;;;;;;;22.47;55.92;101005.16;7398617;19;20032;-66
2023/06/29 09:01:54;;;;;;;6.05;4.03;;;;;;;22.59;55.64;101006.13;7398941;19;20027;-66
2023/06/29 09:04:24;;;;;;;4.60;2.63;;;;;;;22.71;54.86;101001.75;7396361;19;20035;-67
2023/06/29 09:06:53;;;;;;;7.15;2.70;;;;;;;22.82;54.01;101001.84;7398956;19;20018;-67
2023/06/29 09:09:25;;;;;;;5.00;3.00;;;;;;;22.95;53.85;100999.19;7398689;19;20082;-66
2023/06/29 09:11:53;;;;;;;5.38;3.30;;;;;;;23.04;52.75;100998.53;7399076;19;20035;-67
2023/06/29 09:14:22;;;;;;;4.07;2.78;;;;;;;23.14;52.32;101005.91;7395872;19;20465;-68
2023/06/29 09:16:57;;;;;;;3.70;2.47;;;;;;;23.22;51.44;101007.13;7397488;19;20019;-67
2023/06/29 09:19:27;;;;;;;7.30;2.30;;;;;;;23.31;51.40;101004.75;7400759;19;20010;-67
2023/06/29 09:21:57;;;;;;;4.95;2.30;;;;;;;23.38;51.46;101001.53;7397977;19;20389;-68
2023/06/29 09:24:30;;;;;;;4.60;2.30;;;;;;;23.46;50.94;101000.97;7395719;19;20015;-67
2023/06/29 09:26:58;;;;;;;;;;;;;;;23.52;50.63;100995.19;7398415;19;20086;-66
2023/06/29 09:29:27;;;;;;;3.83;2.90;;;;;;;23.60;50.44;100994.63;7397940;19;19915;-67
2023/06/29 09:31:56;;;;;;;8.52;3.03;;;;;;;23.67;50.12;100995.88;7395284;19;20502;-67
2023/06/29 09:34:28;;;;;;;3.38;2.20;;;;;;;23.76;49.74;100994.34;7395277;19;20018;-67
2023/06/29 09:36:58;;;;;;;5.40;1.90;;;;;;;23.83;49.26;100987.56;7396102;19;20485;-66
2023/06/29 09:39:29;;;;;;;5.72;2.72;;;;;;;23.92;48.64;100986.06;7396447;19;20025;-67
2023/06/29 09:41:58;;;;;;;5.32;2.67;;;;;;;23.99;48.52;100981.94;7397633;19;20041;-67
2023/06/29 09:44:27;;;;;;;4.25;2.28;;;;;;;24.08;48.41;100975.03;7394957;19;20504;-67
2023/06/29 09:47:06;;;;;;;3.75;2.22;;;;;;;24.16;48.13;100980.69;7395304;19;20522;-65
2023/06/29 09:49:47;;;;;;;3.55;2.00;;;;;;;24.23;47.79;100978.41;7396513;19;20019;-67
2023/06/29 09:52:16;;;;;;;5.32;1.60;;;;;;;24.30;47.29;100982.31;7396673;19;20028;-67
2023/06/29 09:54:49;;;;;;;3.53;2.33;;;;;;;24.32;46.55;100979.53;7395190;19;20019;-67
2023/06/29 09:57:18;;;;;;;7.32;2.10;;;;;;;24.35;45.94;100984.63;7395754;19;20036;-69
2023/06/29 09:59:46;;;;;;;5.45;2.05;;;;;;;24.35;45.16;100972.09;7394570;19;20391;-66
2023/06/29 10:02:17;;;;;;;3.72;1.80;;;;;;;24.33;45.23;100966.00;7397262;19;20018;-67
2023/06/29 10:04:46;;;;;;;2.65;2.05;;;;;;;24.37;45.27;100969.31;7394824;19;20015;-67
2023/06/29 10:07:18;;;;;;;5.65;1.90;;;;;;;24.41;45.31;100960.03;7395944;19;20022;-68
2023/06/29 10:09:51;;;;;;;3.35;1.90;;;;;;;24.46;44.94;100963.22;7394533;19;20036;-67
2023/06/29 10:12:21;;;;;;;4.07;1.75;;;;;;;24.50;45.42;100959.31;7395283;19;20039;-67
2023/06/29 10:14:49;;;;;;;3.38;2.10;;;;;;;24.57;45.18;100962.41;7394317;19;20489;-69
2023/06/29 10:17:22;;;;;;;3.75;2.35;;;;;;;24.66;44.85;100945.59;7395634;19;20014;-67
2023/06/29 10:19:52;;;;;;;3.78;2.30;;;;;;;24.70;44.94;100941.69;7396167;19;20015;-66
2023/06/29 10:22:23;;;;;;;5.03;2.20;;;;;;;24.79;45.18;100932.06;7394413;19;20014;-67
2023/06/29 10:24:57;;;;;;;9.00;2.10;;;;;;;24.88;45.04;100935.88;7394108;19;20018;-67
2023/06/29 10:27:31;;;;;;;3.00;1.90;;;;;;;24.97;44.94;100940.50;7395884;19;20477;-70
2023/06/29 10:30:04;;;;;;;;;;;;;;;25.10;45.14;100939.50;7394211;19;20462;-68
2023/06/29 10:32:34;;;;;;;5.90;2.37;;;;;;;25.19;45.15;100931.56;7394648;19;19919;-66
2023/06/29 10:35:06;;;;;;;4.55;1.80;;;;;;;25.29;44.71;100920.94;7395883;19;20018;-67
2023/06/29 10:37:35;;;;;;;3.55;1.80;;;;;;;25.40;44.38;100920.09;7393552;19;20491;-67
2023/06/29 10:40:15;;;;;;;2.95;1.90;;;;;;;25.47;43.32;100921.28;7395310;19;20536;-67
2023/06/29 10:42:54;;;;;;;6.03;1.75;;;;;;;25.53;43.71;100920.78;7394926;19;20010;-68
2023/06/29 10:45:36;;;;;;;2.70;1.92;;;;;;;25.61;42.97;100917.47;7394175;19;20031;-67
2023/06/29 10:48:13;;;;;;;3.45;1.88;;;;;;;25.69;43.39;100917.69;7394637;19;20037;-68
2023/06/29 10:50:45;;;;;;;2.53;1.52;;;;;;;25.80;43.43;100919.47;7393775;19;20025;-66
2023/06/29 10:53:16;;;;;;;4.05;1.80;;;;;;;25.89;43.50;100906.25;7393561;19;20018;-66
2023/06/29 10:55:54;;;;;;;4.25;2.05;;;;;;;25.94;42.23;100912.09;7394014;19;20381;-66
2023/06/29 10:58:24;;;;;;;9.27;1.83;;;;;;;25.97;42.81;100909.13;7392358;19;20017;-67
2023/06/29 11:00:54;;;;;;;3.63;1.70;;;;;;;26.02;42.63;100906.91;7393882;19;20015;-68
2023/06/29 11:03:24;;;;;;;2.45;1.60;;;;;;;26.07;42.08;100902.06;7393638;19;20026;-67
2023/06/29 11:05:54;;;;;;;4.95;2.17;;;;;;;26.12;41.85;100901.66;7392886;19;20022;-67
2023/06/29 11:08:23;;;;;;;3.10;1.60;;;;;;;26.19;41.59;100897.47;7394209;19;20031;-67
2023/06/29 11:10:55;;;;;;;4.93;1.60;;;;;;;26.29;40.86;100892.16;7393994;19;20031;-67
2023/06/29 11:13:24;;;;;;;5.43;1.45;;;;;;;26.30;40.64;100893.84;7393421;19;20014;-67
2023/06/29 11:15:56;;;;;;;3.47;1.42;;;;;;;26.32;40.20;100883.78;7392305;19;20023;-65
2023/06/29 11:18:25;;;;;;;2.53;1.50;;;;;;;26.32;40.42;100886.50;7390954;19;20445;-66
2023/06/29 11:20:53;;;;;;;2.40;1.20;;;;;;;26.33;40.38;100882.81;7393888;19;20018;-67
2023/06/29 11:23:22;;;;;;;3.80;1.45;;;;;;;26.38;40.14;100882.44;7391756;19;20022;-66
2023/06/29 11:25:50;;;;;;;4.82;1.73;;;;;;;26.42;40.36;100873.94;7390901;19;20398;-68
2023/06/29 11:28:22;;;;;;;4.32;1.90;;;;;;;26.52;40.40;100875.84;7393918;19;20019;-66
2023/06/29 11:30:52;;;;;;;2.55;1.80;;;;;;;26.62;40.44;100866.81;7392456;19;20410;-67
2023/06/29 11:33:22;;;;;;;3.17;1.70;;;;;;;26.65;40.15;100865.69;7392879;19;20030;-66
2023/06/29 11:35:51;;;;;;;3.08;1.55;;;;;;;26.68;40.38;100873.50;7393413;19;20028;-66